This is the latest recevied weather packets stored in our database for station/object VE6EN. If no packets are shown the sender has not sent any weather packets the latest 10 day(s).
| Time | Temp. | Humidity | Pressure | Rain* | Wind** | Luminosity | Snow |
|---|---|---|---|---|---|---|---|
| 1788055203 | 17.22° C | 43% | 1006.3 hPa | 0 mm | - | - | - |
| 1788054602 | 17.78° C | 42% | 1006.2 hPa | 0 mm | - | - | - |
| 1788054003 | 18.33° C | 42% | 1006.3 hPa | 0 mm | - | - | - |
| 1788053403 | 18.33° C | 43% | 1006.4 hPa | 0 mm | - | - | - |
| 1788052804 | 18.89° C | 43% | 1006.2 hPa | 0 mm | - | - | - |
| 1788052203 | 19.44° C | 42% | 1006.4 hPa | 0 mm | - | - | - |
| 1788051604 | 19.44° C | 42% | 1006.6 hPa | 0 mm | - | - | - |
| 1788051003 | 20° C | 39% | 1006.5 hPa | 0 mm | - | - | - |
| 1788050403 | 20° C | 40% | 1006.6 hPa | 0 mm | - | - | - |
| 1788049804 | 20.56° C | 38% | 1006.5 hPa | 0 mm | - | - | - |
| 1788049204 | 20.56° C | 36% | 1006.4 hPa | 0 mm | - | - | - |
| 1788048604 | 20.56° C | 36% | 1006.4 hPa | 0 mm | - | - | - |
| 1788048003 | 21.11° C | 36% | 1006.4 hPa | 0 mm | - | - | - |
| 1788047403 | 21.11° C | 36% | 1006.5 hPa | 0 mm | - | - | - |
| 1788046803 | 21.11° C | 38% | 1006.4 hPa | 0 mm | - | - | - |
| 1788046204 | 21.67° C | 36% | 1006.6 hPa | 0 mm | - | - | - |
| 1788045603 | 21.67° C | 38% | 1006.6 hPa | 0 mm | - | - | - |
| 1788045003 | 21.67° C | 38% | 1006.7 hPa | 0 mm | - | - | - |
| 1788044403 | 21.67° C | 37% | 1006.7 hPa | 0 mm | - | - | - |
| 1788043803 | 21.11° C | 38% | 1006.9 hPa | 0 mm | - | - | - |
| 1788043203 | 20.56° C | 40% | 1006.9 hPa | 0 mm | - | - | - |
| 1788042604 | 20.56° C | 37% | 1007 hPa | 0 mm | - | - | - |
| 1788042004 | 20.56° C | 40% | 1007.1 hPa | 0 mm | - | - | - |
| 1788041404 | 20.56° C | 42% | 1007.2 hPa | 0 mm | - | - | - |
| 1788040804 | 20.56° C | 42% | 1007.3 hPa | 0 mm | - | - | - |
* Rain latest hour (hover to see other rain measurements)
** Current wind speed in m/s (hover to see current wind gust speed)